WXM80 ListenWXM80 Stop

You find our weather info also at:

UK Metoffice

WeatherCloud

Weather Underground

Northeastern Weather Network

AWEKAS

Citizen Weather Observer Program (CWOP)

HAMweather, WeatherForYou, PWS Weather


Weather Underground History page Text

Daily Summary for January 8, 2018 Units:  Both    English   Metric
« Previous Day
Next Day »
Daily Weekly Monthly Yearly Custom
  High: Low: Average:
Temperature: TemperatureF °F /  -17.8 °C 17.4 °F /  -8.1 °C 29.1 °F /  -1.6 °C
Dew Point: DewpointF °F /  -17.8 °C 7.1 °F /  -13.8 °C 21 °F /  -6.1 °C
Humidity: Humidity % 51 % 72 %
Wind Speed: WindSpeedMPH mph /  0 km/h - 3.6 mph /  5.8 km/h
Wind Gust: WindSpeedGustMPH mph /  0 km/h - -
Wind:- - SW
Pressure: PressureIn in /  0 hPa 29.77 in /  1008 hPa -
Precipitation: 0.00 in /  0 mm    
Historical Graphs
 
 
Tabular Data for January 8, 2018
Time Temperature Dew Point Pressure Wind Wind Speed Wind Gust Humidity Rainfall Rate (Hourly)
TemperatureF °F /  -17.8 °C DewpointF °F /  -17.8 °C PressureIn in /  0 hPa Calm     Humidity % HourlyPrecipIn in /  0 mm
00:08 17.6 °F /  -8 °C 7.1 °F /  -13.8 °C 30.36 in /  1028 hPa SSW 2.6 mph /  4.2 km/h 16.1 mph /  25.9 km/h 63 % 0.00 in /  0 mm
00:37 17.4 °F /  -8.1 °C 7.3 °F /  -13.7 °C 30.35 in /  1027.7 hPa SW 5.3 mph /  8.5 km/h 13.0 mph /  20.9 km/h 64 % 0.00 in /  0 mm
01:23 18.3 °F /  -7.6 °C 8.5 °F /  -13.1 °C 30.34 in /  1027.3 hPa SW 5.0 mph /  8 km/h 18.4 mph /  29.6 km/h 65 % 0.00 in /  0 mm
02:35 19.3 °F /  -7.1 °C 9.4 °F /  -12.6 °C 30.34 in /  1027.3 hPa SW 5.3 mph /  8.5 km/h 18.4 mph /  29.6 km/h 65 % 0.00 in /  0 mm
03:18 20.0 °F /  -6.7 °C 9.8 °F /  -12.3 °C 30.32 in /  1026.6 hPa SW 6.1 mph /  9.8 km/h 15.0 mph /  24.1 km/h 64 % 0.00 in /  0 mm
03:51 20.3 °F /  -6.5 °C 9.7 °F /  -12.4 °C 30.31 in /  1026.3 hPa SSW 2.2 mph /  3.5 km/h 12.7 mph /  20.4 km/h 63 % 0.00 in /  0 mm
03:53 20.3 °F /  -6.5 °C 9.7 °F /  -12.4 °C 30.31 in /  1026.3 hPa SW 4.2 mph /  6.8 km/h 7.0 mph /  11.3 km/h 63 % 0.00 in /  0 mm
04:04 20.4 °F /  -6.4 °C 9.8 °F /  -12.3 °C 30.31 in /  1026.3 hPa SW 4.2 mph /  6.8 km/h 11.5 mph /  18.5 km/h 63 % 0.00 in /  0 mm
04:15 20.4 °F /  -6.4 °C 9.8 °F /  -12.3 °C 30.30 in /  1026 hPa SSW 5.7 mph /  9.2 km/h 10.4 mph /  16.7 km/h 63 % 0.00 in /  0 mm
04:18 20.5 °F /  -6.4 °C 9.9 °F /  -12.3 °C 30.30 in /  1026 hPa SSW 4.9 mph /  7.9 km/h 12.0 mph /  19.3 km/h 63 % 0.00 in /  0 mm
04:20 20.5 °F /  -6.4 °C 9.9 °F /  -12.3 °C 30.30 in /  1026 hPa SSW 3.1 mph /  5 km/h 10.4 mph /  16.7 km/h 63 % 0.00 in /  0 mm
04:25 20.5 °F /  -6.4 °C 9.9 °F /  -12.3 °C 30.30 in /  1026 hPa SW 2.0 mph /  3.2 km/h 11.5 mph /  18.5 km/h 63 % 0.00 in /  0 mm
04:30 20.6 °F /  -6.3 °C 10.3 °F /  -12.1 °C 30.30 in /  1026 hPa SW 5.7 mph /  9.2 km/h 8.0 mph /  12.9 km/h 64 % 0.00 in /  0 mm
04:34 20.5 °F /  -6.4 °C 10.2 °F /  -12.1 °C 30.30 in /  1026 hPa SW 6.2 mph /  10 km/h 12.7 mph /  20.4 km/h 64 % 0.00 in /  0 mm
04:40 20.6 °F /  -6.3 °C 10.3 °F /  -12.1 °C 30.30 in /  1026 hPa SSW 3.4 mph /  5.5 km/h 5.0 mph /  8 km/h 64 % 0.00 in /  0 mm
04:43 20.6 °F /  -6.3 °C 10.3 °F /  -12.1 °C 30.30 in /  1026 hPa South 2.7 mph /  4.3 km/h 6.0 mph /  9.7 km/h 64 % 0.00 in /  0 mm
04:44 20.6 °F /  -6.3 °C 10.3 °F /  -12.1 °C 30.30 in /  1026 hPa WSW 4.8 mph /  7.7 km/h 6.9 mph /  11.1 km/h 64 % 0.00 in /  0 mm
04:49 20.6 °F /  -6.3 °C 10.3 °F /  -12.1 °C 30.30 in /  1026 hPa South 5.6 mph /  9 km/h 10.4 mph /  16.7 km/h 64 % 0.00 in /  0 mm
04:55 20.6 °F /  -6.3 °C 10.7 °F /  -11.8 °C 30.30 in /  1026 hPa SW 4.1 mph /  6.6 km/h 7.0 mph /  11.3 km/h 65 % 0.00 in /  0 mm
04:59 20.6 °F /  -6.3 °C 10.3 °F /  -12.1 °C 30.30 in /  1026 hPa SW 4.5 mph /  7.2 km/h 10.4 mph /  16.7 km/h 64 % 0.00 in /  0 mm
05:04 20.6 °F /  -6.3 °C 10.7 °F /  -11.8 °C 30.30 in /  1026 hPa WSW 3.3 mph /  5.3 km/h 5.8 mph /  9.3 km/h 65 % 0.00 in /  0 mm
05:09 20.4 °F /  -6.4 °C 10.1 °F /  -12.2 °C 30.30 in /  1026 hPa SSW 6.0 mph /  9.7 km/h 10.4 mph /  16.7 km/h 64 % 0.00 in /  0 mm
05:14 20.4 °F /  -6.4 °C 10.1 °F /  -12.2 °C 30.29 in /  1025.6 hPa SSW 4.2 mph /  6.8 km/h 6.9 mph /  11.1 km/h 64 % 0.00 in /  0 mm
05:20 20.3 °F /  -6.5 °C 10.1 °F /  -12.2 °C 30.29 in /  1025.6 hPa SSW 4.6 mph /  7.4 km/h 8.1 mph /  13 km/h 64 % 0.00 in /  0 mm
05:22 20.2 °F /  -6.6 °C 10.0 °F /  -12.2 °C 30.30 in /  1026 hPa SSW 4.3 mph /  6.9 km/h 9.2 mph /  14.8 km/h 64 % 0.00 in /  0 mm
05:28 20.1 °F /  -6.6 °C 10.2 °F /  -12.1 °C 30.30 in /  1026 hPa SSW 3.8 mph /  6.1 km/h 8.1 mph /  13 km/h 65 % 0.00 in /  0 mm
05:33 20.0 °F /  -6.7 °C 10.1 °F /  -12.2 °C 30.30 in /  1026 hPa SSW 3.2 mph /  5.1 km/h 6.9 mph /  11.1 km/h 65 % 0.00 in /  0 mm
05:38 19.9 °F /  -6.7 °C 10.0 °F /  -12.2 °C 30.30 in /  1026 hPa SSW 3.5 mph /  5.6 km/h 5.8 mph /  9.3 km/h 65 % 0.00 in /  0 mm
05:43 19.9 °F /  -6.7 °C 10.4 °F /  -12 °C 30.30 in /  1026 hPa SSW 2.3 mph /  3.7 km/h 5.0 mph /  8 km/h 66 % 0.00 in /  0 mm
05:48 19.8 °F /  -6.8 °C 10.3 °F /  -12.1 °C 30.30 in /  1026 hPa SSW 2.7 mph /  4.3 km/h 6.9 mph /  11.1 km/h 66 % 0.00 in /  0 mm
05:53 19.7 °F /  -6.8 °C 10.5 °F /  -11.9 °C 30.30 in /  1026 hPa SSW 4.4 mph /  7.1 km/h 8.0 mph /  12.9 km/h 67 % 0.00 in /  0 mm
05:58 19.6 °F /  -6.9 °C 10.4 °F /  -12 °C 30.30 in /  1026 hPa SSW 5.9 mph /  9.5 km/h 10.4 mph /  16.7 km/h 67 % 0.00 in /  0 mm
06:04 19.5 °F /  -6.9 °C 10.3 °F /  -12.1 °C 30.31 in /  1026.3 hPa SW 5.9 mph /  9.5 km/h 11.5 mph /  18.5 km/h 67 % 0.00 in /  0 mm
06:09 19.5 °F /  -6.9 °C 10.3 °F /  -12.1 °C 30.31 in /  1026.3 hPa SW 0.9 mph /  1.4 km/h 5.8 mph /  9.3 km/h 67 % 0.00 in /  0 mm
06:20 19.4 °F /  -7 °C 10.6 °F /  -11.9 °C 30.29 in /  1025.6 hPa SW 4.2 mph /  6.8 km/h 6.0 mph /  9.7 km/h 68 % 0.00 in /  0 mm
06:43 19.2 °F /  -7.1 °C 10.4 °F /  -12 °C 30.29 in /  1025.6 hPa SSW 5.5 mph /  8.9 km/h 8.1 mph /  13 km/h 68 % 0.00 in /  0 mm
06:48 19.2 °F /  -7.1 °C 10.7 °F /  -11.8 °C 30.29 in /  1025.6 hPa SW 5.1 mph /  8.2 km/h 9.2 mph /  14.8 km/h 69 % 0.00 in /  0 mm
06:55 19.2 °F /  -7.1 °C 10.7 °F /  -11.8 °C 30.29 in /  1025.6 hPa SSW 5.5 mph /  8.9 km/h 9.2 mph /  14.8 km/h 69 % 0.00 in /  0 mm
07:00 19.2 °F /  -7.1 °C 10.7 °F /  -11.8 °C 30.29 in /  1025.6 hPa SSW 3.3 mph /  5.3 km/h 5.8 mph /  9.3 km/h 69 % 0.00 in /  0 mm
07:04 19.2 °F /  -7.1 °C 10.7 °F /  -11.8 °C 30.28 in /  1025.3 hPa SW 2.5 mph /  4 km/h 5.8 mph /  9.3 km/h 69 % 0.00 in /  0 mm
07:07 19.2 °F /  -7.1 °C 10.7 °F /  -11.8 °C 30.28 in /  1025.3 hPa SSW 3.5 mph /  5.6 km/h 5.8 mph /  9.3 km/h 69 % 0.00 in /  0 mm
07:13 19.2 °F /  -7.1 °C 10.7 °F /  -11.8 °C 30.28 in /  1025.3 hPa SSW 2.4 mph /  3.9 km/h 6.0 mph /  9.7 km/h 69 % 0.00 in /  0 mm
07:15 19.2 °F /  -7.1 °C 10.7 °F /  -11.8 °C 30.28 in /  1025.3 hPa SW 2.6 mph /  4.2 km/h 6.9 mph /  11.1 km/h 69 % 0.00 in /  0 mm
07:20 19.3 °F /  -7.1 °C 11.1 °F /  -11.6 °C 30.29 in /  1025.6 hPa SW 1.2 mph /  1.9 km/h 5.8 mph /  9.3 km/h 70 % 0.00 in /  0 mm
07:23 19.2 °F /  -7.1 °C 11.0 °F /  -11.7 °C 30.29 in /  1025.6 hPa SW 4.7 mph /  7.6 km/h 7.0 mph /  11.3 km/h 70 % 0.00 in /  0 mm
07:29 19.3 °F /  -7.1 °C 11.1 °F /  -11.6 °C 30.28 in /  1025.3 hPa SW 3.0 mph /  4.8 km/h 5.8 mph /  9.3 km/h 70 % 0.00 in /  0 mm
07:36 19.4 °F /  -7 °C 11.2 °F /  -11.6 °C 30.28 in /  1025.3 hPa SW 2.3 mph /  3.7 km/h 4.6 mph /  7.4 km/h 70 % 0.00 in /  0 mm
07:43 19.5 °F /  -6.9 °C 11.3 °F /  -11.5 °C 30.28 in /  1025.3 hPa SW 2.1 mph /  3.4 km/h 4.0 mph /  6.4 km/h 70 % 0.00 in /  0 mm
07:48 19.7 °F /  -6.8 °C 11.5 °F /  -11.4 °C 30.28 in /  1025.3 hPa SSW 1.8 mph /  2.9 km/h 4.6 mph /  7.4 km/h 70 % 0.00 in /  0 mm
07:53 19.9 °F /  -6.7 °C 12.0 °F /  -11.1 °C 30.28 in /  1025.3 hPa SW 4.3 mph /  6.9 km/h 8.0 mph /  12.9 km/h 71 % 0.00 in /  0 mm
07:58 20.2 °F /  -6.6 °C 12.0 °F /  -11.1 °C 30.27 in /  1024.9 hPa SW 0.9 mph /  1.4 km/h 9.2 mph /  14.8 km/h 70 % 0.00 in /  0 mm
08:04 20.4 °F /  -6.4 °C 12.2 °F /  -11 °C 30.26 in /  1024.6 hPa SW 3.2 mph /  5.1 km/h 5.0 mph /  8 km/h 70 % 0.00 in /  0 mm
08:10 20.7 °F /  -6.3 °C 12.5 °F /  -10.8 °C 30.26 in /  1024.6 hPa West 5.0 mph /  8 km/h 8.0 mph /  12.9 km/h 70 % 0.00 in /  0 mm
08:18 21.1 °F /  -6.1 °C 12.8 °F /  -10.7 °C 30.25 in /  1024.3 hPa SW 3.5 mph /  5.6 km/h 6.0 mph /  9.7 km/h 70 % 0.00 in /  0 mm
08:23 21.4 °F /  -5.9 °C 12.8 °F /  -10.7 °C 30.25 in /  1024.3 hPa SSW 2.5 mph /  4 km/h 6.9 mph /  11.1 km/h 69 % 0.00 in /  0 mm
08:29 21.7 °F /  -5.7 °C 13.1 °F /  -10.5 °C 30.26 in /  1024.6 hPa SW 1.7 mph /  2.7 km/h 4.0 mph /  6.4 km/h 69 % 0.00 in /  0 mm
08:34 22.0 °F /  -5.6 °C 13.4 °F /  -10.3 °C 30.25 in /  1024.3 hPa SW 4.4 mph /  7.1 km/h 7.0 mph /  11.3 km/h 69 % 0.00 in /  0 mm
08:39 22.3 °F /  -5.4 °C 13.7 °F /  -10.2 °C 30.26 in /  1024.6 hPa WSW 3.8 mph /  6.1 km/h 7.0 mph /  11.3 km/h 69 % 0.00 in /  0 mm
08:45 22.6 °F /  -5.2 °C 13.6 °F /  -10.2 °C 30.25 in /  1024.3 hPa SW 4.1 mph /  6.6 km/h 8.0 mph /  12.9 km/h 68 % 0.00 in /  0 mm
08:49 22.9 °F /  -5.1 °C 13.6 °F /  -10.2 °C 30.26 in /  1024.6 hPa SW 3.3 mph /  5.3 km/h 6.9 mph /  11.1 km/h 67 % 0.00 in /  0 mm
08:54 23.3 °F /  -4.8 °C 14.0 °F /  -10 °C 30.25 in /  1024.3 hPa SSW 3.7 mph /  6 km/h 8.1 mph /  13 km/h 67 % 0.00 in /  0 mm
08:56 23.5 °F /  -4.7 °C 14.1 °F /  -9.9 °C 30.26 in /  1024.6 hPa SW 4.3 mph /  6.9 km/h 7.0 mph /  11.3 km/h 67 % 0.00 in /  0 mm
09:02 23.8 °F /  -4.6 °C 14.1 °F /  -9.9 °C 30.26 in /  1024.6 hPa SW 4.7 mph /  7.6 km/h 6.0 mph /  9.7 km/h 66 % 0.00 in /  0 mm
09:07 24.0 °F /  -4.4 °C 13.9 °F /  -10.1 °C 30.25 in /  1024.3 hPa SW 2.5 mph /  4 km/h 6.9 mph /  11.1 km/h 65 % 0.00 in /  0 mm
09:12 24.2 °F /  -4.3 °C 14.1 °F /  -9.9 °C 30.25 in /  1024.3 hPa SW 3.9 mph /  6.3 km/h 6.0 mph /  9.7 km/h 65 % 0.00 in /  0 mm
09:18 24.4 °F /  -4.2 °C 14.0 °F /  -10 °C 30.25 in /  1024.3 hPa SW 4.6 mph /  7.4 km/h 6.9 mph /  11.1 km/h 64 % 0.00 in /  0 mm
09:24 24.8 °F /  -4 °C 14.0 °F /  -10 °C 30.25 in /  1024.3 hPa SSW 2.9 mph /  4.7 km/h 8.1 mph /  13 km/h 63 % 0.00 in /  0 mm
09:35 25.5 °F /  -3.6 °C 14.3 °F /  -9.8 °C 30.25 in /  1024.3 hPa West 2.6 mph /  4.2 km/h 9.2 mph /  14.8 km/h 62 % 0.00 in /  0 mm
09:41 25.8 °F /  -3.4 °C 14.6 °F /  -9.7 °C 30.25 in /  1024.3 hPa South 3.2 mph /  5.1 km/h 5.8 mph /  9.3 km/h 62 % 0.00 in /  0 mm
09:47 26.3 °F /  -3.2 °C 14.3 °F /  -9.8 °C 30.24 in /  1023.9 hPa SSW 8.0 mph /  12.9 km/h 15.0 mph /  24.1 km/h 60 % 0.00 in /  0 mm
09:54 26.7 °F /  -2.9 °C 13.9 °F /  -10.1 °C 30.25 in /  1024.3 hPa WSW 5.1 mph /  8.2 km/h 10.4 mph /  16.7 km/h 58 % 0.00 in /  0 mm
10:00 27.1 °F /  -2.7 °C 14.3 °F /  -9.8 °C 30.25 in /  1024.3 hPa WSW 3.4 mph /  5.5 km/h 12.7 mph /  20.4 km/h 58 % 0.00 in /  0 mm
10:05 27.3 °F /  -2.6 °C 14.5 °F /  -9.7 °C 30.24 in /  1023.9 hPa West 3.9 mph /  6.3 km/h 8.1 mph /  13 km/h 58 % 0.00 in /  0 mm
10:11 27.6 °F /  -2.4 °C 14.7 °F /  -9.6 °C 30.24 in /  1023.9 hPa SW 7.0 mph /  11.3 km/h 14.0 mph /  22.5 km/h 58 % 0.00 in /  0 mm
10:17 27.8 °F /  -2.3 °C 14.5 °F /  -9.7 °C 30.24 in /  1023.9 hPa SW 5.1 mph /  8.2 km/h 8.1 mph /  13 km/h 57 % 0.00 in /  0 mm
10:24 28.0 °F /  -2.2 °C 14.7 °F /  -9.6 °C 30.23 in /  1023.6 hPa West 1.1 mph /  1.8 km/h 6.9 mph /  11.1 km/h 57 % 0.00 in /  0 mm
10:30 28.2 °F /  -2.1 °C 14.5 °F /  -9.7 °C 30.23 in /  1023.6 hPa SW 5.6 mph /  9 km/h 9.0 mph /  14.5 km/h 56 % 0.00 in /  0 mm
10:35 28.4 °F /  -2 °C 14.7 °F /  -9.6 °C 30.23 in /  1023.6 hPa West 2.0 mph /  3.2 km/h 9.2 mph /  14.8 km/h 56 % 0.00 in /  0 mm
10:45 28.9 °F /  -1.7 °C 15.2 °F /  -9.3 °C 30.22 in /  1023.2 hPa West 3.0 mph /  4.8 km/h 6.0 mph /  9.7 km/h 56 % 0.00 in /  0 mm
10:53 29.2 °F /  -1.6 °C 15.4 °F /  -9.2 °C 30.22 in /  1023.2 hPa WSW 4.8 mph /  7.7 km/h 7.0 mph /  11.3 km/h 56 % 0.00 in /  0 mm
10:59 29.6 °F /  -1.3 °C 15.8 °F /  -9 °C 30.21 in /  1022.9 hPa West 1.3 mph /  2.1 km/h 5.0 mph /  8 km/h 56 % 0.00 in /  0 mm
11:06 29.9 °F /  -1.2 °C 15.3 °F /  -9.3 °C 30.21 in /  1022.9 hPa SSW 7.4 mph /  11.9 km/h 13.8 mph /  22.2 km/h 54 % 0.00 in /  0 mm
11:12 30.2 °F /  -1 °C 15.5 °F /  -9.2 °C 30.21 in /  1022.9 hPa WSW 5.5 mph /  8.9 km/h 10.4 mph /  16.7 km/h 54 % 0.00 in /  0 mm
11:18 30.5 °F /  -0.8 °C 15.4 °F /  -9.2 °C 30.20 in /  1022.6 hPa SW 4.7 mph /  7.6 km/h 13.0 mph /  20.9 km/h 53 % 0.00 in /  0 mm
11:24 30.6 °F /  -0.8 °C 15.9 °F /  -8.9 °C 30.20 in /  1022.6 hPa WSW 1.5 mph /  2.4 km/h 11.5 mph /  18.5 km/h 54 % 0.00 in /  0 mm
11:29 30.8 °F /  -0.7 °C 15.7 °F /  -9.1 °C 30.20 in /  1022.6 hPa SW 5.0 mph /  8 km/h 13.8 mph /  22.2 km/h 53 % 0.00 in /  0 mm
11:35 31.0 °F /  -0.6 °C 15.8 °F /  -9 °C 29.95 in /  1014.1 hPa SSW 5.9 mph /  9.5 km/h 13.8 mph /  22.2 km/h 53 % 0.00 in /  0 mm
11:40 31.2 °F /  -0.4 °C 16.0 °F /  -8.9 °C 30.18 in /  1021.9 hPa SSW 3.4 mph /  5.5 km/h 8.1 mph /  13 km/h 53 % 0.00 in /  0 mm
11:46 31.3 °F /  -0.4 °C 16.6 °F /  -8.6 °C 30.18 in /  1021.9 hPa SW 5.0 mph /  8 km/h 12.0 mph /  19.3 km/h 54 % 0.00 in /  0 mm
11:51 31.5 °F /  -0.3 °C 16.7 °F /  -8.5 °C 30.17 in /  1021.6 hPa SSW 3.0 mph /  4.8 km/h 10.0 mph /  16.1 km/h 54 % 0.00 in /  0 mm
11:56 31.7 °F /  -0.2 °C 16.9 °F /  -8.4 °C 30.17 in /  1021.6 hPa SSW 6.1 mph /  9.8 km/h 12.7 mph /  20.4 km/h 54 % 0.00 in /  0 mm
12:01 31.9 °F /  -0.1 °C 17.5 °F /  -8.1 °C 30.16 in /  1021.2 hPa WSW 5.7 mph /  9.2 km/h 13.0 mph /  20.9 km/h 55 % 0.00 in /  0 mm
12:02 31.9 °F /  -0.1 °C 17.5 °F /  -8.1 °C 30.16 in /  1021.2 hPa SW 7.9 mph /  12.7 km/h 7.9 mph /  12.7 km/h 55 % 0.00 in /  0 mm
12:07 32.1 °F /  0.1 °C 17.3 °F /  -8.2 °C 30.15 in /  1020.9 hPa SSW 7.7 mph /  12.4 km/h 11.5 mph /  18.5 km/h 54 % 0.00 in /  0 mm
12:23 32.2 °F /  0.1 °C 16.5 °F /  -8.6 °C 30.14 in /  1020.5 hPa WSW 6.8 mph /  10.9 km/h 12.7 mph /  20.4 km/h 52 % 0.00 in /  0 mm
12:26 32.2 °F /  0.1 °C 16.5 °F /  -8.6 °C 30.14 in /  1020.5 hPa WSW 5.2 mph /  8.4 km/h 7.0 mph /  11.3 km/h 52 % 0.00 in /  0 mm
12:31 32.3 °F /  0.2 °C 16.6 °F /  -8.6 °C 30.14 in /  1020.5 hPa SW 5.6 mph /  9 km/h 10.4 mph /  16.7 km/h 52 % 0.00 in /  0 mm
12:35 32.2 °F /  0.1 °C 16.1 °F /  -8.8 °C 30.14 in /  1020.5 hPa SSW 5.2 mph /  8.4 km/h 9.2 mph /  14.8 km/h 51 % 0.00 in /  0 mm
12:40 32.1 °F /  0.1 °C 16.0 °F /  -8.9 °C 30.14 in /  1020.5 hPa SW 10.0 mph /  16.1 km/h 15.0 mph /  24.1 km/h 51 % 0.00 in /  0 mm
12:45 32.0 °F /  0 °C 15.9 °F /  -8.9 °C 30.14 in /  1020.5 hPa SSW 8.1 mph /  13 km/h 11.5 mph /  18.5 km/h 51 % 0.00 in /  0 mm
12:50 31.8 °F /  -0.1 °C 16.2 °F /  -8.8 °C 30.13 in /  1020.2 hPa SW 6.7 mph /  10.8 km/h 12.0 mph /  19.3 km/h 52 % 0.00 in /  0 mm
12:53 31.7 °F /  -0.2 °C 15.6 °F /  -9.1 °C 30.13 in /  1020.2 hPa South 6.3 mph /  10.1 km/h 11.5 mph /  18.5 km/h 51 % 0.00 in /  0 mm
12:58 31.6 °F /  -0.2 °C 16.0 °F /  -8.9 °C 30.12 in /  1019.9 hPa WSW 8.7 mph /  14 km/h 18.4 mph /  29.6 km/h 52 % 0.00 in /  0 mm
13:00 31.5 °F /  -0.3 °C 15.4 °F /  -9.2 °C 30.12 in /  1019.9 hPa WSW 9.5 mph /  15.3 km/h 13.8 mph /  22.2 km/h 51 % 0.00 in /  0 mm
13:05 31.4 °F /  -0.3 °C 15.8 °F /  -9 °C 30.12 in /  1019.9 hPa SSW 9.2 mph /  14.8 km/h 15.0 mph /  24.1 km/h 52 % 0.00 in /  0 mm
13:08 31.4 °F /  -0.3 °C 15.8 °F /  -9 °C 30.12 in /  1019.9 hPa SSW 4.7 mph /  7.6 km/h 8.1 mph /  13 km/h 52 % 0.00 in /  0 mm
13:13 31.4 °F /  -0.3 °C 16.2 °F /  -8.8 °C 30.11 in /  1019.5 hPa South 3.8 mph /  6.1 km/h 11.5 mph /  18.5 km/h 53 % 0.00 in /  0 mm
13:15 31.4 °F /  -0.3 °C 16.7 °F /  -8.5 °C 30.10 in /  1019.2 hPa SSW 4.3 mph /  6.9 km/h 7.0 mph /  11.3 km/h 54 % 0.00 in /  0 mm
13:20 31.4 °F /  -0.3 °C 16.7 °F /  -8.5 °C 30.10 in /  1019.2 hPa South 4.2 mph /  6.8 km/h 8.1 mph /  13 km/h 54 % 0.00 in /  0 mm
13:23 31.4 °F /  -0.3 °C 16.7 °F /  -8.5 °C 30.10 in /  1019.2 hPa South 7.2 mph /  11.6 km/h 12.0 mph /  19.3 km/h 54 % 0.00 in /  0 mm
13:28 31.3 °F /  -0.4 °C 17.0 °F /  -8.3 °C 30.10 in /  1019.2 hPa SSW 2.2 mph /  3.5 km/h 4.6 mph /  7.4 km/h 55 % 0.00 in /  0 mm
13:34 31.4 °F /  -0.3 °C 17.5 °F /  -8.1 °C 30.10 in /  1019.2 hPa SW 5.3 mph /  8.5 km/h 8.1 mph /  13 km/h 56 % 0.00 in /  0 mm
13:39 31.5 °F /  -0.3 °C 17.6 °F /  -8 °C 30.09 in /  1018.8 hPa SW 4.8 mph /  7.7 km/h 11.5 mph /  18.5 km/h 56 % 0.00 in /  0 mm
13:44 31.6 °F /  -0.2 °C 17.7 °F /  -7.9 °C 30.08 in /  1018.5 hPa SSW 6.3 mph /  10.1 km/h 7.0 mph /  11.3 km/h 56 % 0.00 in /  0 mm
13:49 31.7 °F /  -0.2 °C 18.2 °F /  -7.7 °C 30.09 in /  1018.8 hPa SW 5.9 mph /  9.5 km/h 11.5 mph /  18.5 km/h 57 % 0.00 in /  0 mm
13:54 31.8 °F /  -0.1 °C 18.3 °F /  -7.6 °C 30.09 in /  1018.8 hPa South 5.6 mph /  9 km/h 6.9 mph /  11.1 km/h 57 % 0.00 in /  0 mm
13:59 31.9 °F /  -0.1 °C 18.4 °F /  -7.6 °C 30.09 in /  1018.8 hPa SSW 5.7 mph /  9.2 km/h 9.2 mph /  14.8 km/h 57 % 0.00 in /  0 mm
14:04 31.8 °F /  -0.1 °C 18.3 °F /  -7.6 °C 30.09 in /  1018.8 hPa SW 8.7 mph /  14 km/h 15.0 mph /  24.1 km/h 57 % 0.00 in /  0 mm
14:06 31.8 °F /  -0.1 °C 18.3 °F /  -7.6 °C 30.08 in /  1018.5 hPa SSW 5.3 mph /  8.5 km/h 9.2 mph /  14.8 km/h 57 % 0.00 in /  0 mm
14:10 31.7 °F /  -0.2 °C 18.2 °F /  -7.7 °C 30.09 in /  1018.8 hPa SW 3.5 mph /  5.6 km/h 5.8 mph /  9.3 km/h 57 % 0.00 in /  0 mm
14:15 31.7 °F /  -0.2 °C 18.6 °F /  -7.4 °C 30.09 in /  1018.8 hPa SW 3.9 mph /  6.3 km/h 10.4 mph /  16.7 km/h 58 % 0.00 in /  0 mm
14:21 31.7 °F /  -0.2 °C 18.6 °F /  -7.4 °C 30.08 in /  1018.5 hPa SSW 7.0 mph /  11.3 km/h 15.0 mph /  24.1 km/h 58 % 0.00 in /  0 mm
14:26 31.7 °F /  -0.2 °C 18.6 °F /  -7.4 °C 30.08 in /  1018.5 hPa SSW 6.0 mph /  9.7 km/h 10.0 mph /  16.1 km/h 58 % 0.00 in /  0 mm
14:28 31.7 °F /  -0.2 °C 19.0 °F /  -7.2 °C 30.07 in /  1018.2 hPa South 2.9 mph /  4.7 km/h 5.0 mph /  8 km/h 59 % 0.00 in /  0 mm
14:34 31.8 °F /  -0.1 °C 19.1 °F /  -7.2 °C 30.07 in /  1018.2 hPa WSW 4.4 mph /  7.1 km/h 9.0 mph /  14.5 km/h 59 % 0.00 in /  0 mm
14:37 31.8 °F /  -0.1 °C 19.1 °F /  -7.2 °C 30.07 in /  1018.2 hPa SSW 2.0 mph /  3.2 km/h 3.5 mph /  5.6 km/h 59 % 0.00 in /  0 mm
14:43 31.9 °F /  -0.1 °C 19.6 °F /  -6.9 °C 30.07 in /  1018.2 hPa South 2.3 mph /  3.7 km/h 4.6 mph /  7.4 km/h 60 % 0.00 in /  0 mm
14:49 32.0 °F /  0 °C 19.7 °F /  -6.8 °C 30.07 in /  1018.2 hPa SSW 3.4 mph /  5.5 km/h 5.8 mph /  9.3 km/h 60 % 0.00 in /  0 mm
14:54 32.1 °F /  0.1 °C 19.8 °F /  -6.8 °C 30.06 in /  1017.8 hPa SSW 8.1 mph /  13 km/h 11.5 mph /  18.5 km/h 60 % 0.00 in /  0 mm
14:59 32.2 °F /  0.1 °C 19.9 °F /  -6.7 °C 30.06 in /  1017.8 hPa SSW 1.4 mph /  2.3 km/h 3.5 mph /  5.6 km/h 60 % 0.00 in /  0 mm
15:05 32.3 °F /  0.2 °C 20.0 °F /  -6.7 °C 30.05 in /  1017.5 hPa SW 3.3 mph /  5.3 km/h 10.4 mph /  16.7 km/h 60 % 0.00 in /  0 mm
15:10 32.4 °F /  0.2 °C 20.4 °F /  -6.4 °C 30.04 in /  1017.2 hPa SSW 3.1 mph /  5 km/h 6.9 mph /  11.1 km/h 61 % 0.00 in /  0 mm
15:16 32.5 °F /  0.3 °C 20.1 °F /  -6.6 °C 30.04 in /  1017.2 hPa South 5.3 mph /  8.5 km/h 8.1 mph /  13 km/h 60 % 0.00 in /  0 mm
15:21 32.6 °F /  0.3 °C 20.6 °F /  -6.3 °C 30.04 in /  1017.2 hPa SSW 3.6 mph /  5.8 km/h 7.0 mph /  11.3 km/h 61 % 0.00 in /  0 mm
15:26 32.7 °F /  0.4 °C 20.7 °F /  -6.3 °C 30.05 in /  1017.5 hPa SW 6.4 mph /  10.3 km/h 10.4 mph /  16.7 km/h 61 % 0.00 in /  0 mm
15:33 32.9 °F /  0.5 °C 21.3 °F /  -5.9 °C 30.06 in /  1017.8 hPa SW 6.7 mph /  10.8 km/h 11.5 mph /  18.5 km/h 62 % 0.00 in /  0 mm
15:39 33.0 °F /  0.6 °C 21.4 °F /  -5.9 °C 30.06 in /  1017.8 hPa West 5.2 mph /  8.4 km/h 9.2 mph /  14.8 km/h 62 % 0.00 in /  0 mm
15:54 33.3 °F /  0.7 °C 21.3 °F /  -5.9 °C 30.07 in /  1018.2 hPa SW 5.6 mph /  9 km/h 14.0 mph /  22.5 km/h 61 % 0.00 in /  0 mm
15:57 33.3 °F /  0.7 °C 21.7 °F /  -5.7 °C 30.07 in /  1018.2 hPa SSW 3.2 mph /  5.1 km/h 14.0 mph /  22.5 km/h 62 % 0.00 in /  0 mm
16:03 33.3 °F /  0.7 °C 22.4 °F /  -5.3 °C 30.07 in /  1018.2 hPa WSW 0.6 mph /  1 km/h 10.4 mph /  16.7 km/h 64 % 0.00 in /  0 mm
16:10 33.3 °F /  0.7 °C 22.8 °F /  -5.1 °C 30.08 in /  1018.5 hPa SW 3.8 mph /  6.1 km/h 8.1 mph /  13 km/h 65 % 0.00 in /  0 mm
16:15 33.2 °F /  0.7 °C 23.4 °F /  -4.8 °C 30.08 in /  1018.5 hPa WSW 4.1 mph /  6.6 km/h 8.1 mph /  13 km/h 67 % 0.00 in /  0 mm
16:18 33.2 °F /  0.7 °C 23.8 °F /  -4.6 °C 30.07 in /  1018.2 hPa West 2.8 mph /  4.5 km/h 7.0 mph /  11.3 km/h 68 % 0.00 in /  0 mm
16:23 33.0 °F /  0.6 °C 23.6 °F /  -4.7 °C 30.08 in /  1018.5 hPa WSW 3.8 mph /  6.1 km/h 5.8 mph /  9.3 km/h 68 % 0.00 in /  0 mm
16:29 32.9 °F /  0.5 °C 23.8 °F /  -4.6 °C 30.08 in /  1018.5 hPa SW 3.1 mph /  5 km/h 8.1 mph /  13 km/h 69 % 0.00 in /  0 mm
16:35 32.7 °F /  0.4 °C 24.0 °F /  -4.4 °C 30.08 in /  1018.5 hPa West 3.1 mph /  5 km/h 5.0 mph /  8 km/h 70 % 0.00 in /  0 mm
16:42 32.6 °F /  0.3 °C 24.2 °F /  -4.3 °C 30.07 in /  1018.2 hPa WSW 1.4 mph /  2.3 km/h 3.5 mph /  5.6 km/h 71 % 0.00 in /  0 mm
16:47 32.4 °F /  0.2 °C 24.0 °F /  -4.4 °C 30.08 in /  1018.5 hPa SW 3.8 mph /  6.1 km/h 7.0 mph /  11.3 km/h 71 % 0.00 in /  0 mm
16:53 32.2 °F /  0.1 °C 24.2 °F /  -4.3 °C 30.07 in /  1018.2 hPa WSW 2.5 mph /  4 km/h 6.9 mph /  11.1 km/h 72 % 0.00 in /  0 mm
16:59 32.0 °F /  0 °C 24.0 °F /  -4.4 °C 30.07 in /  1018.2 hPa WSW 3.1 mph /  5 km/h 11.5 mph /  18.5 km/h 72 % 0.00 in /  0 mm
17:10 31.7 °F /  -0.2 °C 24.0 °F /  -4.4 °C 30.07 in /  1018.2 hPa SSW 2.9 mph /  4.7 km/h 8.1 mph /  13 km/h 73 % 0.00 in /  0 mm
17:14 31.6 °F /  -0.2 °C 24.3 °F /  -4.3 °C 30.07 in /  1018.2 hPa SW 3.8 mph /  6.1 km/h 6.0 mph /  9.7 km/h 74 % 0.00 in /  0 mm
17:20 31.5 °F /  -0.3 °C 24.5 °F /  -4.2 °C 30.07 in /  1018.2 hPa WSW 3.4 mph /  5.5 km/h 5.8 mph /  9.3 km/h 75 % 0.00 in /  0 mm
17:26 31.4 °F /  -0.3 °C 24.7 °F /  -4.1 °C 30.07 in /  1018.2 hPa SW 4.5 mph /  7.2 km/h 4.6 mph /  7.4 km/h 76 % 0.00 in /  0 mm
17:28 31.4 °F /  -0.3 °C 24.7 °F /  -4.1 °C 30.08 in /  1018.5 hPa West 1.8 mph /  2.9 km/h 8.1 mph /  13 km/h 76 % 0.00 in /  0 mm
17:34 31.2 °F /  -0.4 °C 25.1 °F /  -3.8 °C 30.08 in /  1018.5 hPa SW 3.0 mph /  4.8 km/h 7.0 mph /  11.3 km/h 78 % 0.00 in /  0 mm
17:39 31.1 °F /  -0.5 °C 25.0 °F /  -3.9 °C 30.08 in /  1018.5 hPa SW 3.0 mph /  4.8 km/h 4.0 mph /  6.4 km/h 78 % 0.00 in /  0 mm
17:40 31.1 °F /  -0.5 °C 25.0 °F /  -3.9 °C 30.08 in /  1018.5 hPa SW 1.8 mph /  2.9 km/h 3.5 mph /  5.6 km/h 78 % 0.00 in /  0 mm
17:46 31.0 °F /  -0.6 °C 25.2 °F /  -3.8 °C 30.08 in /  1018.5 hPa WSW 2.5 mph /  4 km/h 7.0 mph /  11.3 km/h 79 % 0.00 in /  0 mm
17:53 30.8 °F /  -0.7 °C 25.4 °F /  -3.7 °C 29.83 in /  1010 hPa West 2.1 mph /  3.4 km/h 4.6 mph /  7.4 km/h 80 % 0.00 in /  0 mm
17:54 30.8 °F /  -0.7 °C 25.4 °F /  -3.7 °C 29.84 in /  1010.4 hPa West 1.8 mph /  2.9 km/h 3.5 mph /  5.6 km/h 80 % 0.00 in /  0 mm
17:58 30.7 °F /  -0.7 °C 25.6 °F /  -3.6 °C 30.08 in /  1018.5 hPa SW 1.9 mph /  3.1 km/h 6.0 mph /  9.7 km/h 81 % 0.00 in /  0 mm
17:59 30.7 °F /  -0.7 °C 25.6 °F /  -3.6 °C 30.08 in /  1018.5 hPa SW 1.9 mph /  3.1 km/h 5.8 mph /  9.3 km/h 81 % 0.00 in /  0 mm
18:01 30.7 °F /  -0.7 °C 25.6 °F /  -3.6 °C 30.08 in /  1018.5 hPa SW 2.0 mph /  3.2 km/h 3.5 mph /  5.6 km/h 81 % 0.00 in /  0 mm
18:04 30.7 °F /  -0.7 °C 25.6 °F /  -3.6 °C 30.08 in /  1018.5 hPa SW 1.7 mph /  2.7 km/h 4.0 mph /  6.4 km/h 81 % 0.00 in /  0 mm
18:06 30.6 °F /  -0.8 °C 25.5 °F /  -3.6 °C 30.08 in /  1018.5 hPa WSW 2.3 mph /  3.7 km/h 3.5 mph /  5.6 km/h 81 % 0.00 in /  0 mm
18:08 30.6 °F /  -0.8 °C 25.8 °F /  -3.4 °C 29.83 in /  1010 hPa WSW 1.1 mph /  1.8 km/h 5.0 mph /  8 km/h 82 % 0.00 in /  0 mm
18:09 30.6 °F /  -0.8 °C 25.8 °F /  -3.4 °C 30.08 in /  1018.5 hPa WSW 2.6 mph /  4.2 km/h 4.6 mph /  7.4 km/h 82 % 0.00 in /  0 mm
18:11 30.6 °F /  -0.8 °C 25.8 °F /  -3.4 °C 30.08 in /  1018.5 hPa SW 4.1 mph /  6.6 km/h 6.0 mph /  9.7 km/h 82 % 0.00 in /  0 mm
18:12 30.5 °F /  -0.8 °C 25.7 °F /  -3.5 °C 30.08 in /  1018.5 hPa WSW 3.6 mph /  5.8 km/h 6.0 mph /  9.7 km/h 82 % 0.00 in /  0 mm
18:15 30.5 °F /  -0.8 °C 25.7 °F /  -3.5 °C 30.08 in /  1018.5 hPa West 2.3 mph /  3.7 km/h 4.6 mph /  7.4 km/h 82 % 0.00 in /  0 mm
18:18 30.4 °F /  -0.9 °C 25.6 °F /  -3.6 °C 30.08 in /  1018.5 hPa West 3.1 mph /  5 km/h 4.0 mph /  6.4 km/h 82 % 0.00 in /  0 mm
18:19 30.4 °F /  -0.9 °C 25.6 °F /  -3.6 °C 30.09 in /  1018.8 hPa West 2.4 mph /  3.9 km/h 5.0 mph /  8 km/h 82 % 0.00 in /  0 mm
18:24 30.4 °F /  -0.9 °C 25.6 °F /  -3.6 °C 30.08 in /  1018.5 hPa SSW 1.5 mph /  2.4 km/h 4.6 mph /  7.4 km/h 82 % 0.00 in /  0 mm
18:28 30.3 °F /  -0.9 °C 25.8 °F /  -3.4 °C 30.08 in /  1018.5 hPa WSW 3.0 mph /  4.8 km/h 8.1 mph /  13 km/h 83 % 0.00 in /  0 mm
18:30 30.2 °F /  -1 °C 25.7 °F /  -3.5 °C 30.08 in /  1018.5 hPa SW 3.9 mph /  6.3 km/h 8.0 mph /  12.9 km/h 83 % 0.00 in /  0 mm
18:32 30.2 °F /  -1 °C 25.7 °F /  -3.5 °C 30.08 in /  1018.5 hPa SW 5.4 mph /  8.7 km/h 8.1 mph /  13 km/h 83 % 0.00 in /  0 mm
18:35 30.1 °F /  -1.1 °C 25.6 °F /  -3.6 °C 30.08 in /  1018.5 hPa SW 3.2 mph /  5.1 km/h 6.9 mph /  11.1 km/h 83 % 0.00 in /  0 mm
18:38 30.1 °F /  -1.1 °C 25.6 °F /  -3.6 °C 29.84 in /  1010.4 hPa WSW 3.5 mph /  5.6 km/h 6.0 mph /  9.7 km/h 83 % 0.00 in /  0 mm
18:42 30.1 °F /  -1.1 °C 25.6 °F /  -3.6 °C 30.08 in /  1018.5 hPa WSW 2.6 mph /  4.2 km/h 8.1 mph /  13 km/h 83 % 0.00 in /  0 mm
18:43 30.0 °F /  -1.1 °C 25.5 °F /  -3.6 °C 30.08 in /  1018.5 hPa WSW 2.4 mph /  3.9 km/h 4.6 mph /  7.4 km/h 83 % 0.00 in /  0 mm
18:47 30.0 °F /  -1.1 °C 25.5 °F /  -3.6 °C 29.84 in /  1010.4 hPa West 3.9 mph /  6.3 km/h 6.0 mph /  9.7 km/h 83 % 0.00 in /  0 mm
18:48 30.0 °F /  -1.1 °C 25.5 °F /  -3.6 °C 30.09 in /  1018.8 hPa WSW 1.5 mph /  2.4 km/h 3.5 mph /  5.6 km/h 83 % 0.00 in /  0 mm
18:50 30.0 °F /  -1.1 °C 25.5 °F /  -3.6 °C 29.84 in /  1010.4 hPa WSW 0.6 mph /  1 km/h 3.5 mph /  5.6 km/h 83 % 0.00 in /  0 mm
18:52 30.0 °F /  -1.1 °C 25.5 °F /  -3.6 °C 30.09 in /  1018.8 hPa WSW 3.8 mph /  6.1 km/h 6.0 mph /  9.7 km/h 83 % 0.00 in /  0 mm
18:53 29.9 °F /  -1.2 °C 25.4 °F /  -3.7 °C 30.08 in /  1018.5 hPa SSW 3.5 mph /  5.6 km/h 6.0 mph /  9.7 km/h 83 % 0.00 in /  0 mm
18:59 30.0 °F /  -1.1 °C 25.5 °F /  -3.6 °C 30.08 in /  1018.5 hPa WSW 3.4 mph /  5.5 km/h 5.0 mph /  8 km/h 83 % 0.00 in /  0 mm
19:03 30.0 °F /  -1.1 °C 25.5 °F /  -3.6 °C 30.08 in /  1018.5 hPa WSW 3.7 mph /  6 km/h 6.0 mph /  9.7 km/h 83 % 0.00 in /  0 mm
19:05 30.0 °F /  -1.1 °C 25.5 °F /  -3.6 °C 29.84 in /  1010.4 hPa WSW 0.5 mph /  0.8 km/h 2.3 mph /  3.7 km/h 83 % 0.00 in /  0 mm
19:08 30.0 °F /  -1.1 °C 25.5 °F /  -3.6 °C 30.08 in /  1018.5 hPa SW 2.0 mph /  3.2 km/h 5.0 mph /  8 km/h 83 % 0.00 in /  0 mm
19:10 30.0 °F /  -1.1 °C 25.5 °F /  -3.6 °C 29.84 in /  1010.4 hPa SW 3.2 mph /  5.1 km/h 7.0 mph /  11.3 km/h 83 % 0.00 in /  0 mm
19:11 30.0 °F /  -1.1 °C 25.5 °F /  -3.6 °C 30.08 in /  1018.5 hPa WSW 2.1 mph /  3.4 km/h 4.0 mph /  6.4 km/h 83 % 0.00 in /  0 mm
19:13 30.0 °F /  -1.1 °C 25.5 °F /  -3.6 °C 30.08 in /  1018.5 hPa WSW 2.5 mph /  4 km/h 8.1 mph /  13 km/h 83 % 0.00 in /  0 mm
19:15 30.1 °F /  -1.1 °C 25.6 °F /  -3.6 °C 29.83 in /  1010 hPa SW 3.3 mph /  5.3 km/h 5.0 mph /  8 km/h 83 % 0.00 in /  0 mm
19:16 30.1 °F /  -1.1 °C 25.6 °F /  -3.6 °C 30.08 in /  1018.5 hPa SSW 3.0 mph /  4.8 km/h 4.6 mph /  7.4 km/h 83 % 0.00 in /  0 mm
19:17 30.1 °F /  -1.1 °C 25.6 °F /  -3.6 °C 30.08 in /  1018.5 hPa WSW 3.1 mph /  5 km/h 7.0 mph /  11.3 km/h 83 % 0.00 in /  0 mm
19:19 30.1 °F /  -1.1 °C 25.3 °F /  -3.7 °C 30.08 in /  1018.5 hPa WSW 2.7 mph /  4.3 km/h 6.9 mph /  11.1 km/h 82 % 0.00 in /  0 mm
19:21 30.1 °F /  -1.1 °C 25.3 °F /  -3.7 °C 30.08 in /  1018.5 hPa WSW 3.2 mph /  5.1 km/h 7.0 mph /  11.3 km/h 82 % 0.00 in /  0 mm
19:24 30.1 °F /  -1.1 °C 25.3 °F /  -3.7 °C 30.08 in /  1018.5 hPa SW 2.0 mph /  3.2 km/h 6.9 mph /  11.1 km/h 82 % 0.00 in /  0 mm
19:26 30.2 °F /  -1 °C 25.4 °F /  -3.7 °C 30.08 in /  1018.5 hPa WSW 3.1 mph /  5 km/h 6.0 mph /  9.7 km/h 82 % 0.00 in /  0 mm
19:27 30.2 °F /  -1 °C 25.4 °F /  -3.7 °C 29.83 in /  1010 hPa WSW 3.4 mph /  5.5 km/h 3.5 mph /  5.6 km/h 82 % 0.00 in /  0 mm
19:28 30.2 °F /  -1 °C 25.4 °F /  -3.7 °C 30.07 in /  1018.2 hPa SSW 1.8 mph /  2.9 km/h 5.8 mph /  9.3 km/h 82 % 0.00 in /  0 mm
19:32 30.3 °F /  -0.9 °C 25.2 °F /  -3.8 °C 30.07 in /  1018.2 hPa SSW 3.9 mph /  6.3 km/h 7.0 mph /  11.3 km/h 81 % 0.00 in /  0 mm
19:33 30.3 °F /  -0.9 °C 25.2 °F /  -3.8 °C 30.08 in /  1018.5 hPa WSW 5.2 mph /  8.4 km/h 6.9 mph /  11.1 km/h 81 % 0.00 in /  0 mm
19:34 30.3 °F /  -0.9 °C 25.2 °F /  -3.8 °C 30.07 in /  1018.2 hPa SSW 4.7 mph /  7.6 km/h 9.2 mph /  14.8 km/h 81 % 0.00 in /  0 mm
19:38 30.4 °F /  -0.9 °C 25.3 °F /  -3.7 °C 30.08 in /  1018.5 hPa SW 2.5 mph /  4 km/h 5.8 mph /  9.3 km/h 81 % 0.00 in /  0 mm
19:40 30.4 °F /  -0.9 °C 25.3 °F /  -3.7 °C 29.83 in /  1010 hPa SSW 2.7 mph /  4.3 km/h 3.5 mph /  5.6 km/h 81 % 0.00 in /  0 mm
19:42 30.5 °F /  -0.8 °C 25.1 °F /  -3.8 °C 30.08 in /  1018.5 hPa WSW 2.8 mph /  4.5 km/h 5.0 mph /  8 km/h 80 % 0.00 in /  0 mm
19:46 30.5 °F /  -0.8 °C 25.1 °F /  -3.8 °C 30.07 in /  1018.2 hPa SW 5.4 mph /  8.7 km/h 8.0 mph /  12.9 km/h 80 % 0.00 in /  0 mm
19:49 30.6 °F /  -0.8 °C 25.2 °F /  -3.8 °C 29.83 in /  1010 hPa WSW 4.0 mph /  6.4 km/h 7.0 mph /  11.3 km/h 80 % 0.00 in /  0 mm
19:51 30.6 °F /  -0.8 °C 25.2 °F /  -3.8 °C 30.07 in /  1018.2 hPa SW 3.3 mph /  5.3 km/h 4.6 mph /  7.4 km/h 80 % 0.00 in /  0 mm
19:52 30.6 °F /  -0.8 °C 25.2 °F /  -3.8 °C 29.83 in /  1010 hPa SW 3.4 mph /  5.5 km/h 7.0 mph /  11.3 km/h 80 % 0.00 in /  0 mm
19:56 30.7 °F /  -0.7 °C 25.3 °F /  -3.7 °C 30.08 in /  1018.5 hPa SSW 3.0 mph /  4.8 km/h 5.8 mph /  9.3 km/h 80 % 0.00 in /  0 mm
19:57 30.7 °F /  -0.7 °C 25.3 °F /  -3.7 °C 30.08 in /  1018.5 hPa SSW 2.7 mph /  4.3 km/h 4.6 mph /  7.4 km/h 80 % 0.00 in /  0 mm
19:58 30.7 °F /  -0.7 °C 25.0 °F /  -3.9 °C 30.08 in /  1018.5 hPa WSW 2.8 mph /  4.5 km/h 4.6 mph /  7.4 km/h 79 % 0.00 in /  0 mm
19:59 30.7 °F /  -0.7 °C 25.0 °F /  -3.9 °C 29.83 in /  1010 hPa South 4.2 mph /  6.8 km/h 6.9 mph /  11.1 km/h 79 % 0.00 in /  0 mm
20:00 30.7 °F /  -0.7 °C 25.0 °F /  -3.9 °C 29.83 in /  1010 hPa WSW 3.5 mph /  5.6 km/h 6.9 mph /  11.1 km/h 79 % 0.00 in /  0 mm
20:02 30.8 °F /  -0.7 °C 25.1 °F /  -3.8 °C 30.08 in /  1018.5 hPa SW 5.9 mph /  9.5 km/h 10.0 mph /  16.1 km/h 79 % 0.00 in /  0 mm
20:03 30.8 °F /  -0.7 °C 25.1 °F /  -3.8 °C 30.08 in /  1018.5 hPa WSW 3.5 mph /  5.6 km/h 10.4 mph /  16.7 km/h 79 % 0.00 in /  0 mm
20:04 30.8 °F /  -0.7 °C 25.1 °F /  -3.8 °C 30.07 in /  1018.2 hPa SW 3.3 mph /  5.3 km/h 6.9 mph /  11.1 km/h 79 % 0.00 in /  0 mm
20:05 30.8 °F /  -0.7 °C 25.1 °F /  -3.8 °C 30.07 in /  1018.2 hPa SSW 3.6 mph /  5.8 km/h 6.9 mph /  11.1 km/h 79 % 0.00 in /  0 mm
20:06 30.8 °F /  -0.7 °C 25.1 °F /  -3.8 °C 30.07 in /  1018.2 hPa SW 6.2 mph /  10 km/h 10.4 mph /  16.7 km/h 79 % 0.00 in /  0 mm
20:09 30.9 °F /  -0.6 °C 24.8 °F /  -4 °C 30.07 in /  1018.2 hPa SW 5.0 mph /  8 km/h 9.2 mph /  14.8 km/h 78 % 0.00 in /  0 mm
20:10 30.9 °F /  -0.6 °C 24.8 °F /  -4 °C 30.07 in /  1018.2 hPa WSW 4.8 mph /  7.7 km/h 10.0 mph /  16.1 km/h 78 % 0.00 in /  0 mm
20:11 30.9 °F /  -0.6 °C 24.8 °F /  -4 °C 30.07 in /  1018.2 hPa WSW 5.6 mph /  9 km/h 10.0 mph /  16.1 km/h 78 % 0.00 in /  0 mm
20:14 30.9 °F /  -0.6 °C 24.8 °F /  -4 °C 30.07 in /  1018.2 hPa SW 3.0 mph /  4.8 km/h 5.8 mph /  9.3 km/h 78 % 0.00 in /  0 mm
20:15 31.0 °F /  -0.6 °C 24.9 °F /  -3.9 °C 30.07 in /  1018.2 hPa SW 1.3 mph /  2.1 km/h 4.6 mph /  7.4 km/h 78 % 0.00 in /  0 mm
20:16 30.9 °F /  -0.6 °C 24.8 °F /  -4 °C 30.07 in /  1018.2 hPa SSW 3.1 mph /  5 km/h 7.0 mph /  11.3 km/h 78 % 0.00 in /  0 mm
20:17 31.0 °F /  -0.6 °C 24.9 °F /  -3.9 °C 30.07 in /  1018.2 hPa SW 4.3 mph /  6.9 km/h 8.1 mph /  13 km/h 78 % 0.00 in /  0 mm
20:18 31.0 °F /  -0.6 °C 24.9 °F /  -3.9 °C 30.07 in /  1018.2 hPa SW 4.0 mph /  6.4 km/h 7.0 mph /  11.3 km/h 78 % 0.00 in /  0 mm
20:21 31.0 °F /  -0.6 °C 24.9 °F /  -3.9 °C 30.07 in /  1018.2 hPa SW 3.0 mph /  4.8 km/h 8.0 mph /  12.9 km/h 78 % 0.00 in /  0 mm
20:23 31.0 °F /  -0.6 °C 24.9 °F /  -3.9 °C 30.07 in /  1018.2 hPa SW 3.4 mph /  5.5 km/h 6.9 mph /  11.1 km/h 78 % 0.00 in /  0 mm
20:25 31.0 °F /  -0.6 °C 24.9 °F /  -3.9 °C 30.07 in /  1018.2 hPa WSW 4.6 mph /  7.4 km/h 5.8 mph /  9.3 km/h 78 % 0.00 in /  0 mm
20:29 31.1 °F /  -0.5 °C 25.0 °F /  -3.9 °C 30.06 in /  1017.8 hPa WSW 3.3 mph /  5.3 km/h 6.0 mph /  9.7 km/h 78 % 0.00 in /  0 mm
20:30 31.1 °F /  -0.5 °C 25.0 °F /  -3.9 °C 30.07 in /  1018.2 hPa SW 3.1 mph /  5 km/h 9.0 mph /  14.5 km/h 78 % 0.00 in /  0 mm
20:32 31.1 °F /  -0.5 °C 25.0 °F /  -3.9 °C 30.07 in /  1018.2 hPa SW 5.1 mph /  8.2 km/h 8.0 mph /  12.9 km/h 78 % 0.00 in /  0 mm
20:34 31.1 °F /  -0.5 °C 25.0 °F /  -3.9 °C 29.82 in /  1009.7 hPa WSW 3.2 mph /  5.1 km/h 8.1 mph /  13 km/h 78 % 0.00 in /  0 mm
20:35 31.2 °F /  -0.4 °C 25.1 °F /  -3.8 °C 30.07 in /  1018.2 hPa SW 2.0 mph /  3.2 km/h 5.0 mph /  8 km/h 78 % 0.00 in /  0 mm
20:37 31.2 °F /  -0.4 °C 25.1 °F /  -3.8 °C 30.07 in /  1018.2 hPa SSW 3.2 mph /  5.1 km/h 6.0 mph /  9.7 km/h 78 % 0.00 in /  0 mm
20:39 31.2 °F /  -0.4 °C 25.1 °F /  -3.8 °C 30.06 in /  1017.8 hPa WSW 6.6 mph /  10.6 km/h 7.0 mph /  11.3 km/h 78 % 0.00 in /  0 mm
20:44 31.2 °F /  -0.4 °C 25.1 °F /  -3.8 °C 30.06 in /  1017.8 hPa SSW 6.7 mph /  10.8 km/h 12.7 mph /  20.4 km/h 78 % 0.00 in /  0 mm
20:47 31.3 °F /  -0.4 °C 25.2 °F /  -3.8 °C 29.82 in /  1009.7 hPa WSW 4.5 mph /  7.2 km/h 8.1 mph /  13 km/h 78 % 0.00 in /  0 mm
20:49 31.3 °F /  -0.4 °C 25.2 °F /  -3.8 °C 30.06 in /  1017.8 hPa SW 5.3 mph /  8.5 km/h 8.1 mph /  13 km/h 78 % 0.00 in /  0 mm
20:50 31.2 °F /  -0.4 °C 25.1 °F /  -3.8 °C 30.06 in /  1017.8 hPa WSW 2.9 mph /  4.7 km/h 8.1 mph /  13 km/h 78 % 0.00 in /  0 mm
20:51 31.3 °F /  -0.4 °C 25.2 °F /  -3.8 °C 30.06 in /  1017.8 hPa WSW 4.5 mph /  7.2 km/h 6.9 mph /  11.1 km/h 78 % 0.00 in /  0 mm
20:52 31.3 °F /  -0.4 °C 25.2 °F /  -3.8 °C 30.06 in /  1017.8 hPa SSW 2.9 mph /  4.7 km/h 6.9 mph /  11.1 km/h 78 % 0.00 in /  0 mm
20:54 31.3 °F /  -0.4 °C 25.2 °F /  -3.8 °C 30.06 in /  1017.8 hPa SW 2.7 mph /  4.3 km/h 6.0 mph /  9.7 km/h 78 % 0.00 in /  0 mm
20:56 31.3 °F /  -0.4 °C 25.2 °F /  -3.8 °C 30.06 in /  1017.8 hPa SSW 4.6 mph /  7.4 km/h 9.2 mph /  14.8 km/h 78 % 0.00 in /  0 mm
20:59 31.4 °F /  -0.3 °C 25.3 °F /  -3.7 °C 29.81 in /  1009.4 hPa SSW 3.2 mph /  5.1 km/h 8.1 mph /  13 km/h 78 % 0.00 in /  0 mm
21:00 31.4 °F /  -0.3 °C 25.3 °F /  -3.7 °C 29.81 in /  1009.4 hPa SW 5.8 mph /  9.3 km/h 8.1 mph /  13 km/h 78 % 0.00 in /  0 mm
21:01 31.4 °F /  -0.3 °C 25.3 °F /  -3.7 °C 30.06 in /  1017.8 hPa WSW 5.8 mph /  9.3 km/h 8.1 mph /  13 km/h 78 % 0.00 in /  0 mm
21:03 31.4 °F /  -0.3 °C 25.3 °F /  -3.7 °C 30.06 in /  1017.8 hPa SSW 5.2 mph /  8.4 km/h 7.0 mph /  11.3 km/h 78 % 0.00 in /  0 mm
21:04 31.4 °F /  -0.3 °C 25.3 °F /  -3.7 °C 30.06 in /  1017.8 hPa SSW 4.9 mph /  7.9 km/h 8.1 mph /  13 km/h 78 % 0.00 in /  0 mm
21:07 31.4 °F /  -0.3 °C 25.3 °F /  -3.7 °C 30.06 in /  1017.8 hPa SW 4.4 mph /  7.1 km/h 7.0 mph /  11.3 km/h 78 % 0.00 in /  0 mm
21:11 31.4 °F /  -0.3 °C 25.3 °F /  -3.7 °C 30.05 in /  1017.5 hPa SSW 3.1 mph /  5 km/h 6.0 mph /  9.7 km/h 78 % 0.00 in /  0 mm
21:12 31.5 °F /  -0.3 °C 25.4 °F /  -3.7 °C 30.05 in /  1017.5 hPa SSW 2.3 mph /  3.7 km/h 4.6 mph /  7.4 km/h 78 % 0.00 in /  0 mm
21:14 31.5 °F /  -0.3 °C 25.4 °F /  -3.7 °C 29.81 in /  1009.4 hPa SSW 3.1 mph /  5 km/h 7.0 mph /  11.3 km/h 78 % 0.00 in /  0 mm
21:20 31.5 °F /  -0.3 °C 25.4 °F /  -3.7 °C 30.05 in /  1017.5 hPa WSW 0.7 mph /  1.1 km/h 4.0 mph /  6.4 km/h 78 % 0.00 in /  0 mm
21:23 31.5 °F /  -0.3 °C 25.4 °F /  -3.7 °C 30.06 in /  1017.8 hPa West 2.1 mph /  3.4 km/h 6.9 mph /  11.1 km/h 78 % 0.00 in /  0 mm
21:25 31.5 °F /  -0.3 °C 25.4 °F /  -3.7 °C 29.81 in /  1009.4 hPa WSW 1.9 mph /  3.1 km/h 4.6 mph /  7.4 km/h 78 % 0.00 in /  0 mm
21:26 31.5 °F /  -0.3 °C 25.4 °F /  -3.7 °C 30.06 in /  1017.8 hPa WSW 0.4 mph /  0.6 km/h 4.6 mph /  7.4 km/h 78 % 0.00 in /  0 mm
21:27 31.5 °F /  -0.3 °C 25.4 °F /  -3.7 °C 29.81 in /  1009.4 hPa Calm   1.2 mph /  1.9 km/h 78 % 0.00 in /  0 mm
21:28 31.5 °F /  -0.3 °C 25.4 °F /  -3.7 °C 29.81 in /  1009.4 hPa SW 2.7 mph /  4.3 km/h 5.8 mph /  9.3 km/h 78 % 0.00 in /  0 mm
21:29 31.5 °F /  -0.3 °C 25.4 °F /  -3.7 °C 29.81 in /  1009.4 hPa SW 2.2 mph /  3.5 km/h 4.0 mph /  6.4 km/h 78 % 0.00 in /  0 mm
21:30 31.5 °F /  -0.3 °C 25.4 °F /  -3.7 °C 30.06 in /  1017.8 hPa SW 2.1 mph /  3.4 km/h 3.5 mph /  5.6 km/h 78 % 0.00 in /  0 mm
21:31 31.5 °F /  -0.3 °C 25.4 °F /  -3.7 °C 30.06 in /  1017.8 hPa West 1.4 mph /  2.3 km/h 5.8 mph /  9.3 km/h 78 % 0.00 in /  0 mm
21:32 31.5 °F /  -0.3 °C 25.4 °F /  -3.7 °C 30.07 in /  1018.2 hPa West 1.3 mph /  2.1 km/h 3.5 mph /  5.6 km/h 78 % 0.00 in /  0 mm
21:33 31.5 °F /  -0.3 °C 25.4 °F /  -3.7 °C 30.07 in /  1018.2 hPa Calm   3.5 mph /  5.6 km/h 78 % 0.00 in /  0 mm
21:34 31.6 °F /  -0.2 °C 25.5 °F /  -3.6 °C 30.06 in /  1017.8 hPa WSW 2.2 mph /  3.5 km/h 3.5 mph /  5.6 km/h 78 % 0.00 in /  0 mm
21:35 31.5 °F /  -0.3 °C 25.4 °F /  -3.7 °C 30.07 in /  1018.2 hPa WSW 3.4 mph /  5.5 km/h 4.6 mph /  7.4 km/h 78 % 0.00 in /  0 mm
21:36 31.5 °F /  -0.3 °C 25.4 °F /  -3.7 °C 30.06 in /  1017.8 hPa WSW 3.0 mph /  4.8 km/h 5.0 mph /  8 km/h 78 % 0.00 in /  0 mm
21:37 31.5 °F /  -0.3 °C 25.4 °F /  -3.7 °C 30.06 in /  1017.8 hPa WSW 1.7 mph /  2.7 km/h 3.5 mph /  5.6 km/h 78 % 0.00 in /  0 mm
21:38 31.5 °F /  -0.3 °C 25.4 °F /  -3.7 °C 30.06 in /  1017.8 hPa West 1.6 mph /  2.6 km/h 4.0 mph /  6.4 km/h 78 % 0.00 in /  0 mm
21:39 31.5 °F /  -0.3 °C 25.4 °F /  -3.7 °C 29.82 in /  1009.7 hPa SW 2.7 mph /  4.3 km/h 6.0 mph /  9.7 km/h 78 % 0.00 in /  0 mm
21:40 31.5 °F /  -0.3 °C 25.4 °F /  -3.7 °C 30.06 in /  1017.8 hPa SW 3.6 mph /  5.8 km/h 5.8 mph /  9.3 km/h 78 % 0.00 in /  0 mm
21:43 31.5 °F /  -0.3 °C 25.4 °F /  -3.7 °C 30.06 in /  1017.8 hPa Calm   2.3 mph /  3.7 km/h 78 % 0.00 in /  0 mm
21:44 31.5 °F /  -0.3 °C 25.4 °F /  -3.7 °C 30.06 in /  1017.8 hPa WSW 0.6 mph /  1 km/h 2.3 mph /  3.7 km/h 78 % 0.00 in /  0 mm
21:45 31.6 °F /  -0.2 °C 25.5 °F /  -3.6 °C 30.06 in /  1017.8 hPa WSW 1.0 mph /  1.6 km/h 3.5 mph /  5.6 km/h 78 % 0.00 in /  0 mm
21:46 31.5 °F /  -0.3 °C 25.4 °F /  -3.7 °C 30.06 in /  1017.8 hPa SW 1.7 mph /  2.7 km/h 3.5 mph /  5.6 km/h 78 % 0.00 in /  0 mm
21:50 31.5 °F /  -0.3 °C 25.7 °F /  -3.5 °C 30.06 in /  1017.8 hPa WSW 4.0 mph /  6.4 km/h 8.0 mph /  12.9 km/h 79 % 0.00 in /  0 mm
21:52 31.5 °F /  -0.3 °C 25.7 °F /  -3.5 °C 30.06 in /  1017.8 hPa SW 2.2 mph /  3.5 km/h 5.0 mph /  8 km/h 79 % 0.00 in /  0 mm
21:53 31.6 °F /  -0.2 °C 25.8 °F /  -3.4 °C 30.06 in /  1017.8 hPa WSW 2.6 mph /  4.2 km/h 5.0 mph /  8 km/h 79 % 0.00 in /  0 mm
21:55 31.6 °F /  -0.2 °C 25.8 °F /  -3.4 °C 29.81 in /  1009.4 hPa SW 3.0 mph /  4.8 km/h 3.5 mph /  5.6 km/h 79 % 0.00 in /  0 mm
21:56 31.6 °F /  -0.2 °C 25.8 °F /  -3.4 °C 29.81 in /  1009.4 hPa SW 1.3 mph /  2.1 km/h 3.5 mph /  5.6 km/h 79 % 0.00 in /  0 mm
21:58 31.5 °F /  -0.3 °C 25.7 °F /  -3.5 °C 30.05 in /  1017.5 hPa WSW 4.3 mph /  6.9 km/h 6.9 mph /  11.1 km/h 79 % 0.00 in /  0 mm
21:59 31.6 °F /  -0.2 °C 25.8 °F /  -3.4 °C 30.05 in /  1017.5 hPa WSW 4.3 mph /  6.9 km/h 6.9 mph /  11.1 km/h 79 % 0.00 in /  0 mm
22:00 31.5 °F /  -0.3 °C 25.7 °F /  -3.5 °C 30.05 in /  1017.5 hPa WSW 0.7 mph /  1.1 km/h 4.6 mph /  7.4 km/h 79 % 0.00 in /  0 mm
22:03 31.6 °F /  -0.2 °C 25.8 °F /  -3.4 °C 30.05 in /  1017.5 hPa WSW 3.4 mph /  5.5 km/h 4.6 mph /  7.4 km/h 79 % 0.00 in /  0 mm
22:04 31.6 °F /  -0.2 °C 25.8 °F /  -3.4 °C 30.05 in /  1017.5 hPa WSW 1.4 mph /  2.3 km/h 3.5 mph /  5.6 km/h 79 % 0.00 in /  0 mm
22:06 31.6 °F /  -0.2 °C 25.8 °F /  -3.4 °C 30.05 in /  1017.5 hPa SW 1.2 mph /  1.9 km/h 3.5 mph /  5.6 km/h 79 % 0.00 in /  0 mm
22:07 31.5 °F /  -0.3 °C 25.7 °F /  -3.5 °C 30.05 in /  1017.5 hPa West 1.8 mph /  2.9 km/h 4.0 mph /  6.4 km/h 79 % 0.00 in /  0 mm
22:08 31.6 °F /  -0.2 °C 25.8 °F /  -3.4 °C 30.05 in /  1017.5 hPa WSW 2.3 mph /  3.7 km/h 4.6 mph /  7.4 km/h 79 % 0.00 in /  0 mm
22:09 31.6 °F /  -0.2 °C 25.8 °F /  -3.4 °C 29.81 in /  1009.4 hPa WSW 1.2 mph /  1.9 km/h 4.6 mph /  7.4 km/h 79 % 0.00 in /  0 mm
22:10 31.6 °F /  -0.2 °C 25.8 °F /  -3.4 °C 30.05 in /  1017.5 hPa South 1.5 mph /  2.4 km/h 4.0 mph /  6.4 km/h 79 % 0.00 in /  0 mm
22:11 31.5 °F /  -0.3 °C 25.7 °F /  -3.5 °C 30.05 in /  1017.5 hPa SSW 2.7 mph /  4.3 km/h 5.8 mph /  9.3 km/h 79 % 0.00 in /  0 mm
22:12 31.6 °F /  -0.2 °C 25.8 °F /  -3.4 °C 30.05 in /  1017.5 hPa SSW 1.1 mph /  1.8 km/h 5.8 mph /  9.3 km/h 79 % 0.00 in /  0 mm
22:13 31.6 °F /  -0.2 °C 25.8 °F /  -3.4 °C 30.05 in /  1017.5 hPa WSW 2.3 mph /  3.7 km/h 3.5 mph /  5.6 km/h 79 % 0.00 in /  0 mm
22:14 31.6 °F /  -0.2 °C 25.8 °F /  -3.4 °C 30.05 in /  1017.5 hPa SW 1.7 mph /  2.7 km/h 4.6 mph /  7.4 km/h 79 % 0.00 in /  0 mm
22:15 31.6 °F /  -0.2 °C 25.8 °F /  -3.4 °C 29.81 in /  1009.4 hPa WSW 1.3 mph /  2.1 km/h 3.5 mph /  5.6 km/h 79 % 0.00 in /  0 mm
22:16 31.6 °F /  -0.2 °C 25.8 °F /  -3.4 °C 30.05 in /  1017.5 hPa West 2.0 mph /  3.2 km/h 3.5 mph /  5.6 km/h 79 % 0.00 in /  0 mm
22:17 31.6 °F /  -0.2 °C 25.8 °F /  -3.4 °C 30.05 in /  1017.5 hPa West 2.1 mph /  3.4 km/h 6.0 mph /  9.7 km/h 79 % 0.00 in /  0 mm
22:18 31.6 °F /  -0.2 °C 25.8 °F /  -3.4 °C 30.05 in /  1017.5 hPa West 0.4 mph /  0.6 km/h 5.8 mph /  9.3 km/h 79 % 0.00 in /  0 mm
22:19 31.6 °F /  -0.2 °C 25.8 °F /  -3.4 °C 30.05 in /  1017.5 hPa WSW 1.5 mph /  2.4 km/h 3.5 mph /  5.6 km/h 79 % 0.00 in /  0 mm
22:20 31.6 °F /  -0.2 °C 25.8 °F /  -3.4 °C 30.05 in /  1017.5 hPa SW 2.8 mph /  4.5 km/h 5.0 mph /  8 km/h 79 % 0.00 in /  0 mm
22:22 31.6 °F /  -0.2 °C 25.8 °F /  -3.4 °C 30.04 in /  1017.2 hPa SW 2.0 mph /  3.2 km/h 4.0 mph /  6.4 km/h 79 % 0.00 in /  0 mm
22:24 31.6 °F /  -0.2 °C 25.8 °F /  -3.4 °C 30.04 in /  1017.2 hPa SW 2.9 mph /  4.7 km/h 4.6 mph /  7.4 km/h 79 % 0.00 in /  0 mm
22:25 31.6 °F /  -0.2 °C 25.8 °F /  -3.4 °C 30.04 in /  1017.2 hPa SW 3.0 mph /  4.8 km/h 4.0 mph /  6.4 km/h 79 % 0.00 in /  0 mm
22:27 31.6 °F /  -0.2 °C 25.8 °F /  -3.4 °C 30.04 in /  1017.2 hPa SW 1.8 mph /  2.9 km/h 4.6 mph /  7.4 km/h 79 % 0.00 in /  0 mm
22:28 31.6 °F /  -0.2 °C 25.8 °F /  -3.4 °C 30.04 in /  1017.2 hPa SSW 2.6 mph /  4.2 km/h 5.0 mph /  8 km/h 79 % 0.00 in /  0 mm
22:30 31.6 °F /  -0.2 °C 25.8 °F /  -3.4 °C 30.04 in /  1017.2 hPa West 3.2 mph /  5.1 km/h 5.8 mph /  9.3 km/h 79 % 0.00 in /  0 mm
22:32 31.6 °F /  -0.2 °C 25.8 °F /  -3.4 °C 30.04 in /  1017.2 hPa SW 1.1 mph /  1.8 km/h 5.0 mph /  8 km/h 79 % 0.00 in /  0 mm
22:34 31.6 °F /  -0.2 °C 25.8 °F /  -3.4 °C 30.04 in /  1017.2 hPa WSW 0.7 mph /  1.1 km/h 4.6 mph /  7.4 km/h 79 % 0.00 in /  0 mm
22:37 31.6 °F /  -0.2 °C 25.8 °F /  -3.4 °C 30.05 in /  1017.5 hPa WSW 3.0 mph /  4.8 km/h 5.0 mph /  8 km/h 79 % 0.00 in /  0 mm
22:38 31.6 °F /  -0.2 °C 25.8 °F /  -3.4 °C 30.05 in /  1017.5 hPa SW 1.3 mph /  2.1 km/h 3.5 mph /  5.6 km/h 79 % 0.00 in /  0 mm
22:41 31.6 °F /  -0.2 °C 25.8 °F /  -3.4 °C 30.04 in /  1017.2 hPa WSW 1.0 mph /  1.6 km/h 4.0 mph /  6.4 km/h 79 % 0.00 in /  0 mm
22:42 31.6 °F /  -0.2 °C 25.8 °F /  -3.4 °C 30.04 in /  1017.2 hPa SW 0.1 mph /  0.2 km/h 2.0 mph /  3.2 km/h 79 % 0.00 in /  0 mm
22:43 31.6 °F /  -0.2 °C 25.8 °F /  -3.4 °C 30.04 in /  1017.2 hPa WSW 2.9 mph /  4.7 km/h 5.0 mph /  8 km/h 79 % 0.00 in /  0 mm
22:47 31.6 °F /  -0.2 °C 25.8 °F /  -3.4 °C 30.05 in /  1017.5 hPa SW 0.9 mph /  1.4 km/h 3.5 mph /  5.6 km/h 79 % 0.00 in /  0 mm
22:48 31.6 °F /  -0.2 °C 25.8 °F /  -3.4 °C 30.05 in /  1017.5 hPa WSW 2.8 mph /  4.5 km/h 5.0 mph /  8 km/h 79 % 0.00 in /  0 mm
22:49 31.6 °F /  -0.2 °C 25.8 °F /  -3.4 °C 30.05 in /  1017.5 hPa SW 4.0 mph /  6.4 km/h 4.6 mph /  7.4 km/h 79 % 0.00 in /  0 mm
22:50 31.6 °F /  -0.2 °C 25.8 °F /  -3.4 °C 30.05 in /  1017.5 hPa WSW 1.2 mph /  1.9 km/h 3.5 mph /  5.6 km/h 79 % 0.00 in /  0 mm
22:51 31.6 °F /  -0.2 °C 25.8 °F /  -3.4 °C 30.05 in /  1017.5 hPa WSW 0.8 mph /  1.3 km/h 3.5 mph /  5.6 km/h 79 % 0.00 in /  0 mm
22:56 31.6 °F /  -0.2 °C 25.8 °F /  -3.4 °C 30.04 in /  1017.2 hPa SW 3.1 mph /  5 km/h 5.8 mph /  9.3 km/h 79 % 0.00 in /  0 mm
22:58 31.6 °F /  -0.2 °C 25.8 °F /  -3.4 °C 30.04 in /  1017.2 hPa SW 3.4 mph /  5.5 km/h 9.2 mph /  14.8 km/h 79 % 0.00 in /  0 mm
22:59 31.6 °F /  -0.2 °C 25.8 °F /  -3.4 °C 30.05 in /  1017.5 hPa WSW 3.1 mph /  5 km/h 3.5 mph /  5.6 km/h 79 % 0.00 in /  0 mm
23:00 31.6 °F /  -0.2 °C 25.8 °F /  -3.4 °C 29.80 in /  1009 hPa WNW 2.1 mph /  3.4 km/h 3.5 mph /  5.6 km/h 79 % 0.00 in /  0 mm
23:02 31.6 °F /  -0.2 °C 25.8 °F /  -3.4 °C 30.04 in /  1017.2 hPa SW 2.1 mph /  3.4 km/h 4.0 mph /  6.4 km/h 79 % 0.00 in /  0 mm
23:05 31.7 °F /  -0.2 °C 25.9 °F /  -3.4 °C 30.04 in /  1017.2 hPa WSW 1.4 mph /  2.3 km/h 5.8 mph /  9.3 km/h 79 % 0.00 in /  0 mm
23:08 31.7 °F /  -0.2 °C 25.9 °F /  -3.4 °C 30.04 in /  1017.2 hPa WNW 3.8 mph /  6.1 km/h 5.8 mph /  9.3 km/h 79 % 0.00 in /  0 mm
23:10 31.7 °F /  -0.2 °C 26.2 °F /  -3.2 °C 30.04 in /  1017.2 hPa WSW 3.2 mph /  5.1 km/h 9.0 mph /  14.5 km/h 80 % 0.00 in /  0 mm
23:11 31.7 °F /  -0.2 °C 26.2 °F /  -3.2 °C 29.80 in /  1009 hPa WSW 4.7 mph /  7.6 km/h 5.0 mph /  8 km/h 80 % 0.00 in /  0 mm
23:12 31.7 °F /  -0.2 °C 26.2 °F /  -3.2 °C 30.04 in /  1017.2 hPa SW 3.6 mph /  5.8 km/h 8.1 mph /  13 km/h 80 % 0.00 in /  0 mm
23:15 31.7 °F /  -0.2 °C 26.2 °F /  -3.2 °C 30.04 in /  1017.2 hPa WSW 3.8 mph /  6.1 km/h 9.2 mph /  14.8 km/h 80 % 0.00 in /  0 mm
23:17 31.7 °F /  -0.2 °C 26.2 °F /  -3.2 °C 30.04 in /  1017.2 hPa SSW 2.2 mph /  3.5 km/h 9.2 mph /  14.8 km/h 80 % 0.00 in /  0 mm
23:18 31.7 °F /  -0.2 °C 26.2 °F /  -3.2 °C 30.03 in /  1016.8 hPa SW 1.8 mph /  2.9 km/h 4.6 mph /  7.4 km/h 80 % 0.00 in /  0 mm
23:19 31.7 °F /  -0.2 °C 26.2 °F /  -3.2 °C 30.04 in /  1017.2 hPa West 5.7 mph /  9.2 km/h 9.2 mph /  14.8 km/h 80 % 0.00 in /  0 mm
23:20 31.7 °F /  -0.2 °C 25.9 °F /  -3.4 °C 30.03 in /  1016.8 hPa West 4.6 mph /  7.4 km/h 11.5 mph /  18.5 km/h 79 % 0.00 in /  0 mm
23:27 31.8 °F /  -0.1 °C 26.0 °F /  -3.3 °C 30.03 in /  1016.8 hPa SW 4.4 mph /  7.1 km/h 8.1 mph /  13 km/h 79 % 0.00 in /  0 mm
23:28 31.8 °F /  -0.1 °C 26.0 °F /  -3.3 °C 29.78 in /  1008.4 hPa South 2.6 mph /  4.2 km/h 6.9 mph /  11.1 km/h 79 % 0.00 in /  0 mm
23:29 31.8 °F /  -0.1 °C 26.3 °F /  -3.2 °C 30.03 in /  1016.8 hPa WSW 5.0 mph /  8 km/h 9.2 mph /  14.8 km/h 80 % 0.00 in /  0 mm
23:30 31.8 °F /  -0.1 °C 26.3 °F /  -3.2 °C 30.02 in /  1016.5 hPa SW 3.8 mph /  6.1 km/h 8.1 mph /  13 km/h 80 % 0.00 in /  0 mm
23:36 31.9 °F /  -0.1 °C 26.1 °F /  -3.3 °C 30.02 in /  1016.5 hPa WSW 4.5 mph /  7.2 km/h 9.2 mph /  14.8 km/h 79 % 0.00 in /  0 mm
23:37 31.9 °F /  -0.1 °C 26.1 °F /  -3.3 °C 30.02 in /  1016.5 hPa SW 3.0 mph /  4.8 km/h 9.2 mph /  14.8 km/h 79 % 0.00 in /  0 mm
23:38 31.8 °F /  -0.1 °C 26.0 °F /  -3.3 °C 30.02 in /  1016.5 hPa West 4.4 mph /  7.1 km/h 6.0 mph /  9.7 km/h 79 % 0.00 in /  0 mm
23:39 31.9 °F /  -0.1 °C 26.1 °F /  -3.3 °C 29.77 in /  1008 hPa SSW 4.0 mph /  6.4 km/h 5.8 mph /  9.3 km/h 79 % 0.00 in /  0 mm
23:41 31.9 °F /  -0.1 °C 26.1 °F /  -3.3 °C 30.02 in /  1016.5 hPa SW 5.0 mph /  8 km/h 5.0 mph /  8 km/h 79 % 0.00 in /  0 mm
23:43 31.9 °F /  -0.1 °C 26.1 °F /  -3.3 °C 30.02 in /  1016.5 hPa WSW 3.5 mph /  5.6 km/h 8.1 mph /  13 km/h 79 % 0.00 in /  0 mm
23:44 31.9 °F /  -0.1 °C 26.1 °F /  -3.3 °C 29.77 in /  1008 hPa SSW 4.8 mph /  7.7 km/h 9.0 mph /  14.5 km/h 79 % 0.00 in /  0 mm
23:46 31.9 °F /  -0.1 °C 26.1 °F /  -3.3 °C 30.01 in /  1016.1 hPa SSW 2.8 mph /  4.5 km/h 6.9 mph /  11.1 km/h 79 % 0.00 in /  0 mm
23:47 31.9 °F /  -0.1 °C 26.1 °F /  -3.3 °C 30.01 in /  1016.1 hPa SW 3.6 mph /  5.8 km/h 9.2 mph /  14.8 km/h 79 % 0.00 in /  0 mm
23:48 31.9 °F /  -0.1 °C 26.1 °F /  -3.3 °C 30.01 in /  1016.1 hPa SW 3.1 mph /  5 km/h 6.9 mph /  11.1 km/h 79 % 0.00 in /  0 mm
23:50 31.9 °F /  -0.1 °C 26.1 °F /  -3.3 °C 30.01 in /  1016.1 hPa South 5.6 mph /  9 km/h 9.2 mph /  14.8 km/h 79 % 0.00 in /  0 mm
23:51 31.9 °F /  -0.1 °C 26.1 °F /  -3.3 °C 30.01 in /  1016.1 hPa West 6.6 mph /  10.6 km/h 10.4 mph /  16.7 km/h 79 % 0.00 in /  0 mm
23:54 31.9 °F /  -0.1 °C 26.1 °F /  -3.3 °C 30.01 in /  1016.1 hPa WSW 5.0 mph /  8 km/h 11.5 mph /  18.5 km/h 79 % 0.00 in /  0 mm
23:55 31.9 °F /  -0.1 °C 26.1 °F /  -3.3 °C 30.01 in /  1016.1 hPa WSW 5.4 mph /  8.7 km/h 11.5 mph /  18.5 km/h 79 % 0.00 in /  0 mm
23:56 31.9 °F /  -0.1 °C 26.1 °F /  -3.3 °C 29.77 in /  1008 hPa SW 6.0 mph /  9.7 km/h 12.0 mph /  19.3 km/h 79 % 0.00 in /  0 mm
23:58 31.9 °F /  -0.1 °C 26.1 °F /  -3.3 °C 30.01 in /  1016.1 hPa WSW 6.1 mph /  9.8 km/h 9.2 mph /  14.8 km/h 79 % 0.00 in /  0 mm
Crab Meadow Weather
Compliments of Weather Underground - 3.5 mb

Script developed by  Jim McMurry - jmcmurry@mwt.net Adapted for the template by  Wim van der Kuil - Leuven-Template.eu

Weather Terms: Funnel Cloud - A rotating column of air, extending from a towering cumulus or cumulonimbus cloud, that is not in contact with the ground.